Time;durP1;ratioP1;P1;durP2;ratioP2;P2;SDS_P1;SDS_P2;PMS_P1;PMS_P2;Temp;Humidity;BMP_temperature;BMP_pressure;BME280_temperature;BME280_humidity;BME280_pressure;Samples;Min_cycle;Max_cycle;Signal;HPM_P1;HPM_P2
2021/06/23 00:00:36;;;;;;;1.00;0.70;;;;;;;;;;4957800;28;20041;-93
2021/06/23 00:03:02;;;;;;;1.00;0.70;;;;;;;;;;4974842;28;20063;-92
2021/06/23 00:05:29;;;;;;;2.20;1.08;;;;;;;;;;4973512;28;20077;-92
2021/06/23 00:07:55;;;;;;;0.73;0.73;;;;;;;;;;4974781;28;20504;-93
2021/06/23 00:10:21;;;;;;;0.73;0.73;;;;;;;;;;4974663;28;20031;-92
2021/06/23 00:12:50;;;;;;;1.35;0.88;;;18.60;66.20;;;;;;4959205;28;20134;-94
2021/06/23 00:15:18;;;;;;;1.42;1.30;;;18.60;63.80;;;;;;4974916;28;20023;-93
2021/06/23 00:17:44;;;;;;;0.63;0.63;;;;;;;;;;4974635;28;20038;-92
2021/06/23 00:20:11;;;;;;;1.55;1.10;;;;;;;;;;4973505;28;20019;-94
2021/06/23 00:22:37;;;;;;;6.55;1.08;;;;;;;;;;4974799;28;20031;-92
2021/06/23 00:25:03;;;;;;;1.30;0.80;;;;;;;;;;4972987;28;20034;-93
2021/06/23 00:27:29;;;;;;;0.77;0.50;;;;;;;;;;4974801;28;20412;-94
2021/06/23 00:29:55;;;;;;;2.45;0.80;;;;;;;;;;4954310;29;20117;-93
2021/06/23 00:32:21;;;;;;;1.67;0.73;;;;;;;;;;4974554;28;20479;-93
2021/06/23 00:34:48;;;;;;;2.08;1.30;;;;;;;;;;4974372;28;20097;-93
2021/06/23 00:37:14;;;;;;;13.30;1.57;;;;;;;;;;4974259;28;20030;-91
2021/06/23 00:39:40;;;;;;;1.30;0.80;;;;;;;;;;4964502;28;20032;-95
2021/06/23 00:42:08;;;;;;;4.05;1.45;;;18.20;64.30;;;;;;4943290;28;20034;-93
2021/06/23 00:44:34;;;;;;;1.27;0.63;;;;;;;;;;4956832;28;20026;-93
2021/06/23 00:47:01;;;;;;;1.42;0.70;;;;;;;;;;4969547;28;20031;-93
2021/06/23 00:49:31;;;;;;;1.67;0.98;;;;;;;;;;4953550;28;20503;-92
2021/06/23 00:51:59;;;;;;;1.02;0.82;;;;;;;;;;4974313;28;20030;-93
2021/06/23 00:54:25;;;;;;;0.98;0.90;;;;;;;;;;4972518;28;20026;-92
2021/06/23 00:56:51;;;;;;;2.17;0.80;;;;;;;;;;4974876;28;20586;-93
2021/06/23 00:59:17;;;;;;;4.97;0.50;;;;;;;;;;4978081;28;20022;-94
2021/06/23 01:01:43;;;;;;;0.95;0.82;;;;;;;;;;4977469;28;20042;-93
2021/06/23 01:04:10;;;;;;;6.70;0.82;;;;;;;;;;4977588;28;20757;-92
2021/06/23 01:06:36;;;;;;;0.85;0.80;;;;;;;;;;4976838;28;20031;-92
2021/06/23 01:09:03;;;;;;;1.75;1.13;;;18.50;61.60;;;;;;4978053;28;20698;-92
2021/06/23 01:11:29;;;;;;;0.98;0.70;;;;;;;;;;4960764;28;20035;-92
2021/06/23 01:14:03;;;;;;;2.15;1.05;;;;;;;;;;4977766;28;20031;-92
2021/06/23 01:16:30;;;;;;;1.88;0.80;;;;;;;;;;4977804;28;20027;-93
2021/06/23 01:18:57;;;;;;;2.05;0.80;;;;;;;;;;4976718;28;20026;-94
2021/06/23 01:21:23;;;;;;;3.40;0.98;;;;;;;;;;4960279;28;20057;-93
2021/06/23 01:23:50;;;;;;;4.03;0.80;;;;;;;;;;4978029;28;20019;-92
2021/06/23 01:26:16;;;;;;;0.45;0.45;;;;;;;;;;4977887;28;20759;-93
2021/06/23 01:28:42;;;;;;;0.75;0.63;;;;;;;;;;4972718;28;20031;-92
2021/06/23 01:31:08;;;;;;;0.73;0.70;;;;;;;;;;4971885;28;20022;-94
2021/06/23 01:33:37;;;;;;;2.85;1.65;;;;;;;;;;4976683;28;20034;-92
2021/06/23 01:36:03;;;;;;;0.85;0.65;;;;;;;;;;4976804;28;20023;-94
2021/06/23 01:38:29;;;;;;;0.98;0.73;;;;;;;;;;4977664;28;20027;-95
2021/06/23 01:40:55;;;;;;;1.17;0.90;;;;;;;;;;4977504;28;20027;-93
2021/06/23 01:43:21;;;;;;;0.68;0.60;;;;;;;;;;4976930;28;20085;-92
2021/06/23 01:45:47;;;;;;;2.80;0.60;;;;;;;;;;4976334;28;20034;-92
2021/06/23 01:48:15;;;;;;;0.40;0.40;;;;;;;;;;4977029;28;20045;-93
2021/06/23 01:50:41;;;;;;;1.67;0.57;;;;;;;;;;4977080;28;20026;-92
2021/06/23 01:53:07;;;;;;;1.75;0.55;;;;;;;;;;4977458;28;20488;-92
2021/06/23 01:55:34;;;;;;;3.00;0.50;;;;;;;;;;4976996;28;20081;-93
2021/06/23 01:58:02;;;;;;;4.32;0.70;;;;;;;;;;4976805;28;20114;-95
2021/06/23 02:00:34;;;;;;;1.27;0.60;;;17.90;60.30;;;;;;4976991;28;20170;-95
2021/06/23 02:03:03;;;;;;;2.80;2.13;;;;;;;;;;4976886;28;20492;-94
2021/06/23 02:05:37;;;;;;;3.20;0.95;;;;;;;;;;4977293;28;20051;-95
2021/06/23 02:08:20;;;;;;;6.13;0.75;;;;;;;;;;4958774;28;20039;-93
2021/06/23 02:10:51;;;;;;;0.55;0.50;;;17.60;60.90;;;;;;4977224;28;20074;-95
2021/06/23 02:13:29;;;;;;;1.52;0.95;;;;;;;;;;4976483;28;20130;-94
2021/06/23 02:16:05;;;;;;;1.83;0.65;;;17.60;61.10;;;;;;4976744;28;20140;-95
2021/06/23 02:18:31;;;;;;;0.80;0.65;;;;;;;;;;4960195;28;20141;-94
2021/06/23 02:20:58;;;;;;;3.42;1.17;;;17.60;62.30;;;;;;4976663;28;20042;-95
2021/06/23 02:23:25;;;;;;;1.15;0.70;;;;;;;;;;4952972;28;20028;-94
2021/06/23 02:25:51;;;;;;;0.70;0.57;;;;;;;;;;4977560;28;20171;-94
2021/06/23 02:28:18;;;;;;;4.10;1.30;;;17.60;61.80;;;;;;4975209;28;20027;-96
2021/06/23 02:30:45;;;;;;;0.70;0.70;;;;;;;;;;4976855;28;20030;-95
2021/06/23 02:33:11;;;;;;;1.02;0.82;;;;;;;;;;4976059;28;20031;-94
2021/06/23 02:35:37;;;;;;;1.05;0.90;;;;;;;;;;4976131;28;20030;-94
2021/06/23 02:38:04;;;;;;;1.33;0.60;;;;;;;;;;4976517;28;20037;-96
2021/06/23 02:40:31;;;;;;;1.47;0.93;;;;;;;;;;4978138;28;20661;-95
2021/06/23 02:42:57;;;;;;;2.15;0.95;;;;;;;;;;4975543;28;20043;-95
2021/06/23 02:45:27;;;;;;;0.63;0.60;;;;;;;;;;4975756;28;20133;-96
2021/06/23 02:47:54;;;;;;;0.82;0.52;;;;;;;;;;4977261;28;20751;-96
2021/06/23 02:50:20;;;;;;;1.15;0.77;;;;;;;;;;4976973;28;20114;-95
2021/06/23 02:52:47;;;;;;;1.70;0.80;;;;;;;;;;4959776;28;20034;-95
2021/06/23 02:55:19;;;;;;;0.98;0.63;;;;;;;;;;4976435;28;20768;-95
2021/06/23 02:57:45;;;;;;;4.47;2.05;;;;;;;;;;4975191;28;20510;-94
2021/06/23 03:00:12;;;;;;;4.18;1.20;;;;;;;;;;4976442;28;20025;-95
2021/06/23 03:02:38;;;;;;;0.60;0.52;;;;;;;;;;4976211;28;20046;-94
2021/06/23 03:05:04;;;;;;;4.90;1.25;;;;;;;;;;4972019;28;20115;-93
2021/06/23 03:07:30;;;;;;;1.10;0.60;;;;;;;;;;4957093;29;20043;-93
2021/06/23 03:10:04;;;;;;;1.13;0.68;;;;;;;;;;4956817;28;20051;-95
2021/06/23 03:12:30;;;;;;;9.85;0.85;;;;;;;;;;4956654;29;20508;-93
2021/06/23 03:14:56;;;;;;;5.93;1.15;;;;;;;;;;4956484;29;20522;-95
2021/06/23 03:17:22;;;;;;;0.60;0.60;;;;;;;;;;4955782;29;20027;-94
2021/06/23 03:19:48;;;;;;;2.72;1.10;;;;;;;;;;4954681;28;20029;-96
2021/06/23 03:22:14;;;;;;;1.08;0.90;;;;;;;;;;4955516;29;20039;-94
2021/06/23 03:24:40;;;;;;;6.82;0.80;;;;;;;;;;4955713;29;20046;-95
2021/06/23 03:27:07;;;;;;;2.00;0.90;;;;;;;;;;4971704;28;20518;-95
2021/06/23 03:29:34;;;;;;;1.20;1.03;;;;;;;;;;4957184;29;20038;-95
2021/06/23 03:32:01;;;;;;;3.15;0.63;;;;;;;;;;4957038;29;20039;-95
2021/06/23 03:34:27;;;;;;;2.50;0.70;;;;;;;;;;4956863;29;20058;-95
2021/06/23 03:36:53;;;;;;;2.20;1.50;;;;;;;;;;4955623;29;20054;-96
2021/06/23 03:39:21;;;;;;;0.60;0.40;;;;;;;;;;4954764;29;20513;-94
2021/06/23 03:41:47;;;;;;;;;;;16.80;62.00;;;;;;4955848;29;20039;-94
2021/06/23 03:44:13;;;;;;;4.47;1.15;;;;;;;;;;4956439;28;19913;-96
2021/06/23 03:46:39;;;;;;;4.63;0.90;;;;;;;;;;4956600;29;20404;-95
2021/06/23 03:49:05;;;;;;;1.90;1.10;;;;;;;;;;4956238;28;20031;-94
2021/06/23 03:51:31;;;;;;;0.60;0.60;;;;;;;;;;4971276;28;20027;-94
2021/06/23 03:53:57;;;;;;;1.80;0.77;;;;;;;;;;4955015;29;20027;-96
2021/06/23 03:56:23;;;;;;;0.80;0.60;;;;;;;;;;4955292;29;20023;-95
2021/06/23 03:58:49;;;;;;;1.33;0.73;;;;;;;;;;4955851;29;20496;-95
2021/06/23 04:01:16;;;;;;;1.63;0.73;;;;;;;;;;4956402;29;20437;-95
2021/06/23 04:03:42;;;;;;;0.80;0.75;;;;;;;;;;4955371;29;20023;-95
2021/06/23 04:06:08;;;;;;;2.50;2.30;;;;;;;;;;4970894;28;20047;-95
2021/06/23 04:08:34;;;;;;;5.13;1.13;;;;;;;;;;4956275;29;20480;-95
2021/06/23 04:11:00;;;;;;;1.40;0.70;;;;;;;;;;4971232;28;20027;-95
2021/06/23 04:13:26;;;;;;;1.55;0.45;;;;;;;;;;4970820;28;20027;-95
2021/06/23 04:15:52;;;;;;;1.70;0.70;;;;;;;;;;4956645;29;20024;-96
2021/06/23 04:18:18;;;;;;;2.80;0.73;;;;;;;;;;4972035;28;20038;-96
2021/06/23 04:20:44;;;;;;;0.70;0.70;;;;;;;;;;4956119;29;20035;-94
2021/06/23 04:23:10;;;;;;;0.93;0.52;;;;;;;;;;4955243;29;20067;-95
2021/06/23 04:25:36;;;;;;;2.88;0.57;;;;;;;;;;4956031;29;20015;-95
2021/06/23 04:28:02;;;;;;;3.53;0.60;;;;;;;;;;4955950;29;20163;-95
2021/06/23 04:30:28;;;;;;;1.13;0.80;;;;;;;;;;4954721;28;20110;-96
2021/06/23 04:32:54;;;;;;;0.70;0.50;;;;;;;;;;4954401;29;20094;-95
2021/06/23 04:35:20;;;;;;;0.60;0.43;;;;;;;;;;4971030;28;20019;-95
2021/06/23 04:37:46;;;;;;;0.63;0.63;;;;;;;;;;4970290;28;20090;-96
2021/06/23 04:40:14;;;;;;;0.85;0.60;;;;;;;;;;4955557;29;20624;-94
2021/06/23 04:42:41;;;;;;;7.65;0.85;;;;;;;;;;4954847;29;20043;-95
2021/06/23 04:45:08;;;;;;;0.50;0.50;;;;;;;;;;4953759;29;20027;-93
2021/06/23 04:47:35;;;;;;;7.13;0.63;;;;;;;;;;4955289;29;20102;-95
2021/06/23 04:50:01;;;;;;;1.75;0.75;;;;;;;;;;4954402;29;20027;-95
2021/06/23 04:52:27;;;;;;;10.13;1.17;;;;;;;;;;4955147;28;20034;-95
2021/06/23 04:54:53;;;;;;;1.42;0.70;;;;;;;;;;4955221;29;20046;-95
2021/06/23 04:57:19;;;;;;;6.13;0.95;;;;;;;;;;4955390;29;20507;-96
2021/06/23 04:59:45;;;;;;;0.50;0.50;;;;;;;;;;4954630;29;20488;-96
2021/06/23 05:02:12;;;;;;;0.70;0.57;;;;;;;;;;4955467;28;20063;-95
2021/06/23 05:04:38;;;;;;;1.48;0.43;;;;;;;;;;4959423;28;20037;-94
2021/06/23 05:07:07;;;;;;;0.68;0.50;;;;;;;;;;4957351;28;20031;-94
2021/06/23 05:09:33;;;;;;;1.40;0.40;;;;;;;;;;4974875;28;20411;-94
2021/06/23 05:11:59;;;;;;;2.05;1.00;;;;;;;;;;4975030;28;20023;-94
2021/06/23 05:14:25;;;;;;;1.65;0.85;;;;;;;;;;4974376;28;20019;-94
2021/06/23 05:16:51;;;;;;;4.30;1.48;;;;;;;;;;4974524;28;20031;-95
2021/06/23 05:19:18;;;;;;;3.13;0.85;;;;;;;;;;4973943;28;20030;-96
2021/06/23 05:21:44;;;;;;;2.10;0.57;;;;;;;;;;4970002;28;20066;-88
2021/06/23 05:24:10;;;;;;;1.65;1.00;;;;;;;;;;4970526;28;20365;-88
2021/06/23 05:26:36;;;;;;;1.27;0.93;;;;;;;;;;4970005;28;20056;-88
2021/06/23 05:29:03;;;;;;;4.35;0.70;;;;;;;;;;4971431;28;20029;-88
2021/06/23 05:31:29;;;;;;;3.15;0.75;;;;;;;;;;4957077;28;20065;-88
2021/06/23 05:33:55;;;;;;;5.63;0.88;;;;;;;;;;4971294;28;20074;-87
2021/06/23 05:36:21;;;;;;;1.67;0.90;;;;;;;;;;4963248;28;20034;-89
2021/06/23 05:38:47;;;;;;;1.23;0.82;;;;;;;;;;4960402;28;20035;-88
2021/06/23 05:41:13;;;;;;;1.30;0.88;;;;;;;;;;4971807;28;20088;-88
2021/06/23 05:43:39;;;;;;;0.60;0.60;;;;;;;;;;4973107;28;20155;-91
2021/06/23 05:46:05;;;;;;;3.03;0.60;;;;;;;;;;4975922;28;20031;-91
2021/06/23 05:48:31;;;;;;;0.80;0.65;;;;;;;;;;4977176;28;20078;-89
2021/06/23 05:50:57;;;;;;;2.67;1.75;;;;;;;;;;4976574;28;20022;-92
2021/06/23 05:53:23;;;;;;;2.80;0.80;;;;;;;;;;4976883;28;20030;-92
2021/06/23 05:55:50;;;;;;;1.00;0.90;;;;;;;;;;4976259;28;20089;-88
2021/06/23 05:58:16;;;;;;;1.77;1.30;;;;;;;;;;4958153;28;20411;-89
2021/06/23 06:00:42;;;;;;;1.08;0.80;;;;;;;;;;4957006;28;20041;-85
2021/06/23 06:03:08;;;;;;;5.40;1.83;;;;;;;;;;4971593;28;20030;-86
2021/06/23 06:05:35;;;;;;;1.77;1.33;;;18.20;61.40;;;;;;4961755;28;20047;-85
2021/06/23 06:08:01;;;;;;;1.33;0.90;;;;;;;;;;4974794;28;20039;-89
2021/06/23 06:10:27;;;;;;;3.95;0.95;;;;;;;;;;4957992;28;20062;-88
2021/06/23 06:12:53;;;;;;;7.38;2.13;;;;;;;;;;4971895;28;20039;-87
2021/06/23 06:15:19;;;;;;;2.15;1.52;;;;;;;;;;4974513;28;20026;-89
2021/06/23 06:17:45;;;;;;;8.23;1.05;;;;;;;;;;4972646;28;20042;-86
2021/06/23 06:20:12;;;;;;;0.93;0.80;;;;;;;;;;4971352;28;20499;-88
2021/06/23 06:22:38;;;;;;;3.92;2.15;;;;;;;;;;4970779;28;20042;-85
2021/06/23 06:25:05;;;;;;;28.27;1.25;;;19.20;56.20;;;;;;4957876;28;20026;-88
2021/06/23 06:27:31;;;;;;;1.45;1.08;;;;;;;;;;4974022;28;20082;-88
2021/06/23 06:29:57;;;;;;;1.95;0.82;;;;;;;;;;4972903;28;20023;-87
2021/06/23 06:32:23;;;;;;;0.50;0.50;;;;;;;;;;4957748;28;20512;-87
2021/06/23 06:34:49;;;;;;;0.68;0.60;;;;;;;;;;4973154;28;20591;-87
2021/06/23 06:37:15;;;;;;;0.88;0.60;;;;;;;;;;4974569;28;20038;-87
2021/06/23 06:39:41;;;;;;;1.67;0.88;;;;;;;;;;4974485;28;20515;-88
2021/06/23 06:42:07;;;;;;;3.42;1.10;;;;;;;;;;4974041;28;20035;-88
2021/06/23 06:44:33;;;;;;;1.13;0.60;;;;;;;;;;4955715;28;20023;-88
2021/06/23 06:47:00;;;;;;;0.80;0.60;;;;;;;;;;4967061;28;20026;-86
2021/06/23 06:49:28;;;;;;;0.98;0.85;;;;;;;;;;4956974;28;20027;-87
2021/06/23 06:51:57;;;;;;;2.83;0.82;;;22.90;48.40;;;;;;4947661;28;20031;-85
2021/06/23 06:54:24;;;;;;;4.03;0.40;;;;;;;;;;4949714;28;20042;-87
2021/06/23 06:56:49;;;;;;;5.80;0.57;;;;;;;;;;4971381;28;20093;-87
2021/06/23 06:59:18;;;;;;;0.82;0.47;;;;;;;;;;4955308;28;20027;-86
2021/06/23 07:01:44;;;;;;;0.28;0.20;;;;;;;;;;4956301;28;20073;-88
2021/06/23 07:04:10;;;;;;;1.85;0.63;;;;;;;;;;4942945;28;20484;-87
2021/06/23 07:06:36;;;;;;;1.25;0.40;;;;;;;;;;4969926;28;20039;-87
2021/06/23 07:09:02;;;;;;;0.75;0.30;;;;;;;;;;4952702;28;20033;-86
2021/06/23 07:11:28;;;;;;;0.68;0.40;;;;;;;;;;4973121;28;20436;-87
2021/06/23 07:13:54;;;;;;;0.70;0.40;;;;;;;;;;4968389;28;20031;-87
2021/06/23 07:16:20;;;;;;;3.53;0.55;;;;;;;;;;4968532;28;20038;-86
2021/06/23 07:18:48;;;;;;;3.58;0.43;;;;;;;;;;4972594;28;20563;-87
2021/06/23 07:21:18;;;;;;;0.50;0.40;;;;;;;;;;4973117;28;20039;-88
2021/06/23 07:23:44;;;;;;;0.70;0.40;;;;;;;;;;4970492;28;20031;-87
2021/06/23 07:26:10;;;;;;;0.40;0.30;;;;;;;;;;4956381;28;20035;-88
2021/06/23 07:28:49;;;;;;;0.55;0.40;;;;;;;;;;4955352;28;20155;-87
2021/06/23 07:31:19;;;;;;;1.42;0.40;;;;;;;;;;4958755;28;20448;-88
2021/06/23 07:33:52;;;;;;;8.43;0.88;;;;;;;;;;4964597;28;20870;-88
2021/06/23 07:36:35;;;;;;;1.63;0.70;;;26.10;39.40;;;;;;4968117;28;20031;-87
2021/06/23 07:39:02;;;;;;;3.20;0.98;;;;;;;;;;4956454;28;20440;-87
2021/06/23 07:41:28;;;;;;;5.10;1.15;;;;;;;;;;4972844;28;20038;-87
2021/06/23 07:43:54;;;;;;;1.30;0.95;;;;;;;;;;4954043;28;20186;-88
2021/06/23 07:46:20;;;;;;;2.33;1.27;;;;;;;;;;4966067;28;20125;-87
2021/06/23 07:48:49;;;;;;;1.58;0.65;;;;;;;;;;4972812;28;20045;-88
2021/06/23 07:51:19;;;;;;;2.38;0.82;;;;;;;;;;4967891;28;20126;-89
2021/06/23 07:56:34;;;;;;;5.78;0.68;;;;;;;;;;4973380;28;20473;-88
2021/06/23 08:09:37;;;;;;;1.83;0.43;;;29.80;29.50;;;;;;4969703;28;20515;-87
2021/06/23 08:12:52;;;;;;;0.77;0.47;;;;;;;;;;4954593;28;20038;-87
2021/06/23 08:14:52;;;;;;;0.68;0.60;;;;;;;;;;4952693;28;20027;-86
2021/06/23 08:17:18;;;;;;;1.17;0.40;;;;;;;;;;4972627;28;20042;-87
2021/06/23 08:19:44;;;;;;;1.15;0.50;;;;;;;;;;4972586;28;20037;-89
2021/06/23 08:22:11;;;;;;;1.90;0.30;;;;;;;;;;4978214;28;20034;-88
2021/06/23 08:24:38;;;;;;;1.55;0.45;;;33.20;25.60;;;;;;4971457;28;20097;-87
2021/06/23 08:27:06;;;;;;;1.05;0.60;;;;;;;;;;4968904;28;20058;-88
2021/06/23 08:29:32;;;;;;;0.63;0.55;;;;;;;;;;4969112;28;20034;-86
2021/06/23 08:31:58;;;;;;;3.63;0.73;;;;;;;;;;4973022;28;20027;-89
2021/06/23 08:34:26;;;;;;;2.47;0.32;;;;;;;;;;4963974;28;20074;-88
2021/06/23 08:36:52;;;;;;;1.17;0.40;;;;;;;;;;4954994;28;20027;-90
2021/06/23 08:39:18;;;;;;;0.98;0.40;;;;;;;;;;4966572;28;20530;-89
2021/06/23 08:41:44;;;;;;;0.85;0.50;;;;;;;;;;4951872;28;20149;-84
2021/06/23 08:44:10;;;;;;;0.35;0.20;;;;;;;;;;4954417;28;20089;-86
2021/06/23 08:46:39;;;;;;;3.30;0.68;;;;;;;;;;4970858;28;20039;-87
2021/06/23 08:49:06;;;;;;;2.13;0.45;;;36.40;21.50;;;;;;4952387;28;20066;-89
2021/06/23 08:51:32;;;;;;;;;;;36.40;21.60;;;;;;4970180;28;20037;-86
2021/06/23 08:53:58;;;;;;;3.97;0.32;;;;;;;;;;4970365;28;19910;-85
2021/06/23 08:56:24;;;;;;;0.20;0.10;;;;;;;;;;4966508;28;20055;-85
2021/06/23 08:58:50;;;;;;;0.55;0.40;;;;;;;;;;4968642;28;20038;-86
2021/06/23 09:01:16;;;;;;;1.48;0.47;;;;;;;;;;4950992;28;20429;-86
2021/06/23 09:04:08;;;;;;;1.25;0.63;;;33.50;23.50;;;;;;4968637;28;20082;-85
2021/06/23 09:06:47;;;;;;;0.30;0.20;;;32.80;24.80;;;;;;4965657;28;20126;-85
2021/06/23 09:09:25;;;;;;;0.57;0.30;;;32.00;39.40;;;;;;4966588;28;20045;-86
2021/06/23 09:11:56;;;;;;;1.58;0.55;;;32.90;28.60;;;;;;4950945;28;20033;-85
2021/06/23 09:14:23;;;;;;;1.00;0.20;;;;;;;;;;4969712;28;20035;-85
2021/06/23 09:17:03;;;;;;;5.05;0.52;;;;;;;;;;4968435;28;20155;-86
2021/06/23 09:19:29;;;;;;;0.20;0.10;;;;;;;;;;4968874;28;20034;-86
2021/06/23 09:21:55;;;;;;;1.85;0.95;;;;;;;;;;4948843;28;20054;-85
2021/06/23 09:24:34;;;;;;;0.70;0.30;;;30.50;28.50;;;;;;4961317;28;20035;-85
2021/06/23 09:27:00;;;;;;;0.95;0.32;;;;;;;;;;4953418;28;20034;-84
2021/06/23 09:29:26;;;;;;;0.73;0.50;;;;;;;;;;4973891;28;20350;-86
2021/06/23 09:32:00;;;;;;;1.70;0.70;;;;;;;;;;4964673;28;20822;-88
2021/06/23 09:34:27;;;;;;;0.98;0.30;;;;;;;;;;4971685;28;20066;-88
2021/06/23 09:36:54;;;;;;;0.73;0.60;;;;;;;;;;4974375;28;20035;-86
2021/06/23 09:39:38;;;;;;;1.08;0.28;;;;;;;;;;4975536;28;20523;-87
2021/06/23 09:42:04;;;;;;;0.38;0.10;;;;;;;;;;4943075;29;20043;-86
2021/06/23 09:44:30;;;;;;;0.37;0.23;;;;;;;;;;4970939;28;20031;-86
2021/06/23 09:46:56;;;;;;;0.93;0.20;;;;;;;;;;4955066;28;20030;-87
2021/06/23 09:49:31;;;;;;;0.67;0.10;;;33.10;25.30;;;;;;4951187;28;20518;-88
2021/06/23 09:52:09;;;;;;;1.52;0.30;;;32.60;24.60;;;;;;4968608;28;20023;-89
2021/06/23 09:54:50;;;;;;;1.30;0.22;;;31.60;25.20;;;;;;4975650;28;20035;-90
2021/06/23 09:57:17;;;;;;;0.45;0.20;;;30.50;26.90;;;;;;4976386;28;20027;-90
2021/06/23 09:59:47;;;;;;;0.20;0.20;;;29.60;28.50;;;;;;4973699;28;20042;-88
2021/06/23 10:02:34;;;;;;;0.55;0.55;;;28.90;31.00;;;;;;4975257;28;20046;-88
2021/06/23 10:05:21;;;;;;;2.70;0.20;;;29.60;28.30;;;;;;4955681;29;20126;-85
2021/06/23 10:07:48;;;;;;;2.00;0.30;;;;;;;;;;4955687;28;20031;-85
2021/06/23 10:10:20;;;;;;;0.40;0.20;;;32.80;26.10;;;;;;4969731;28;20038;-85
2021/06/23 10:12:51;;;;;;;0.52;0.13;;;33.90;23.70;;;;;;4965135;28;20062;-86
2021/06/23 10:15:17;;;;;;;0.30;0.10;;;;;;;;;;4971732;28;20031;-85
2021/06/23 10:17:44;;;;;;;8.00;0.20;;;;;;;;;;4970239;28;20062;-86
2021/06/23 10:20:10;;;;;;;;;;;;;;;;;;4957493;28;20027;-87
2021/06/23 10:22:37;;;;;;;0.68;0.20;;;30.40;28.10;;;;;;4956742;28;20419;-87
2021/06/23 10:25:06;;;;;;;0.43;0.30;;;29.60;28.70;;;;;;4962940;28;20050;-86
2021/06/23 10:27:35;;;;;;;1.63;0.50;;;28.90;29.70;;;;;;4971976;28;20122;-86
2021/06/23 10:30:03;;;;;;;4.60;0.40;;;28.00;31.50;;;;;;4954077;28;20488;-86
2021/06/23 10:32:29;;;;;;;0.22;0.20;;;;;;;;;;4952515;28;20042;-85
2021/06/23 10:34:55;;;;;;;0.32;0.20;;;;;;;;;;4956307;28;20027;-86
2021/06/23 10:37:22;;;;;;;2.25;0.60;;;27.20;34.90;;;;;;4969100;28;20042;-86
2021/06/23 10:39:48;;;;;;;;;;;27.20;36.50;;;;;;4968417;28;20050;-86
2021/06/23 10:42:14;;;;;;;1.47;0.50;;;;;;;;;;4971343;28;20387;-92
2021/06/23 10:44:47;;;;;;;0.93;0.30;;;26.90;33.80;;;;;;4971199;28;20500;-84
2021/06/23 10:47:31;;;;;;;1.58;0.15;;;26.90;34.40;;;;;;4965895;28;20059;-86
2021/06/23 10:49:57;;;;;;;0.60;0.30;;;;;;;;;;4970820;28;20042;-86
2021/06/23 10:52:24;;;;;;;0.52;0.40;;;;;;;;;;4942659;29;20031;-86
2021/06/23 10:54:49;;;;;;;3.35;0.50;;;;;;;;;;4962909;28;20163;-87
2021/06/23 10:57:22;;;;;;;1.17;0.43;;;;;;;;;;4972026;28;20125;-88
2021/06/23 10:59:48;;;;;;;3.03;0.22;;;;;;;;;;4971546;28;20535;-87
2021/06/23 11:02:15;;;;;;;1.70;0.37;;;;;;;;;;4951124;28;20039;-88
2021/06/23 11:05:03;;;;;;;0.47;0.40;;;;;;;;;;4966183;28;20857;-88
2021/06/23 11:07:32;;;;;;;3.40;1.83;;;;;;;;;;4969804;28;20077;-89
2021/06/23 11:10:13;;;;;;;0.75;0.35;;;;;;;;;;4971409;28;20027;-88
2021/06/23 11:12:49;;;;;;;0.40;0.35;;;;;;;;;;4968200;28;20093;-87
2021/06/23 11:15:16;;;;;;;2.30;0.35;;;;;;;;;;4960749;28;20074;-87
2021/06/23 11:17:43;;;;;;;0.68;0.32;;;26.50;37.60;;;;;;4954784;28;20039;-87
2021/06/23 11:20:22;;;;;;;0.90;0.40;;;;;;;;;;4969395;28;20055;-89
2021/06/23 11:22:48;;;;;;;1.05;0.47;;;;;;;;;;4971199;28;20085;-88
2021/06/23 11:25:21;;;;;;;1.27;0.40;;;;;;;;;;4968991;28;20455;-87
2021/06/23 11:27:47;;;;;;;9.77;0.85;;;;;;;;;;4966840;28;20073;-87
2021/06/23 11:30:22;;;;;;;0.65;0.30;;;;;;;;;;4972314;28;20054;-87
2021/06/23 11:32:48;;;;;;;0.85;0.30;;;;;;;;;;4951157;28;20080;-89
2021/06/23 11:35:14;;;;;;;0.47;0.30;;;;;;;;;;4967520;28;20030;-88
2021/06/23 11:37:40;;;;;;;0.80;0.40;;;;;;;;;;4957899;28;20031;-89
2021/06/23 11:40:11;;;;;;;3.40;0.30;;;;;;;;;;4967305;28;20070;-88
2021/06/23 11:42:37;;;;;;;0.90;0.47;;;;;;;;;;4973211;28;20507;-89
2021/06/23 11:45:03;;;;;;;1.08;0.28;;;;;;;;;;4979205;28;20042;-88
2021/06/23 11:47:29;;;;;;;0.43;0.33;;;;;;;;;;4973628;28;20023;-88
2021/06/23 11:49:55;;;;;;;3.05;0.30;;;;;;;;;;4953693;29;20028;-90
2021/06/23 11:52:21;;;;;;;0.45;0.45;;;;;;;;;;4970074;28;20026;-92
2021/06/23 11:54:48;;;;;;;0.33;0.33;;;;;;;;;;4959042;28;20441;-90
2021/06/23 11:57:14;;;;;;;0.93;0.40;;;;;;;;;;4960862;28;20046;-90
2021/06/23 11:59:48;;;;;;;0.52;0.40;;;;;;;;;;4986462;28;20057;-80
2021/06/23 12:02:14;;;;;;;0.57;0.40;;;;;;;;;;4968846;28;20038;-80
2021/06/23 12:04:40;;;;;;;1.15;0.60;;;;;;;;;;4969017;28;20515;-89
2021/06/23 12:07:06;;;;;;;3.25;0.40;;;;;;;;;;4972232;28;20035;-88
2021/06/23 12:09:32;;;;;;;0.75;0.32;;;;;;;;;;4973689;28;20500;-92
2021/06/23 12:11:58;;;;;;;0.55;0.30;;;;;;;;;;4973972;28;20034;-90
2021/06/23 12:14:24;;;;;;;11.73;0.88;;;;;;;;;;4973886;28;20042;-89
2021/06/23 12:16:50;;;;;;;1.45;0.60;;;;;;;;;;4973978;28;20117;-91
2021/06/23 12:19:16;;;;;;;0.98;0.60;;;;;;;;;;4943045;29;20035;-92
2021/06/23 12:21:42;;;;;;;0.30;0.30;;;;;;;;;;4963634;28;20504;-91
2021/06/23 12:24:11;;;;;;;0.50;0.30;;;;;;;;;;4973445;28;20488;-90
2021/06/23 12:26:37;;;;;;;0.35;0.30;;;;;;;;;;4955530;28;20026;-91
2021/06/23 12:29:05;;;;;;;1.55;0.45;;;;;;;;;;4949505;28;20037;-91
2021/06/23 12:31:31;;;;;;;0.30;0.30;;;;;;;;;;4958196;28;20043;-91
2021/06/23 12:33:57;;;;;;;1.35;0.50;;;;;;;;;;4939658;29;20027;-92
2021/06/23 12:36:23;;;;;;;3.47;0.60;;;;;;;;;;4955443;28;20035;-91
2021/06/23 12:38:49;;;;;;;3.75;0.50;;;;;;;;;;4954872;28;20042;-92
2021/06/23 12:41:15;;;;;;;0.70;0.40;;;;;;;;;;4955204;29;20523;-92
2021/06/23 12:43:42;;;;;;;2.72;0.50;;;;;;;;;;4971764;28;20027;-90
2021/06/23 12:46:08;;;;;;;2.47;0.40;;;;;;;;;;4972028;28;20496;-93
2021/06/23 12:48:34;;;;;;;0.68;0.52;;;;;;;;;;4956305;28;20035;-92
2021/06/23 12:51:00;;;;;;;11.30;0.90;;;;;;;;;;4957250;28;20498;-91
2021/06/23 12:53:29;;;;;;;4.10;0.60;;;;;;;;;;4956052;28;20058;-94
2021/06/23 12:55:55;;;;;;;0.93;0.60;;;;;;;;;;4954209;28;20037;-91
2021/06/23 12:58:21;;;;;;;0.40;0.40;;;;;;;;;;4984014;28;20026;-90
2021/06/23 13:00:47;;;;;;;0.80;0.80;;;;;;;;;;4982319;28;20106;-91
2021/06/23 13:03:13;;;;;;;2.45;0.80;;;;;;;;;;4953766;28;20043;-91
2021/06/23 13:05:39;;;;;;;3.22;0.52;;;;;;;;;;4972644;28;20734;-92
2021/06/23 13:08:06;;;;;;;2.90;1.20;;;;;;;;;;4973321;28;20031;-92
2021/06/23 13:10:33;;;;;;;3.40;1.08;;;;;;;;;;4977060;28;20023;-92
2021/06/23 13:12:59;;;;;;;0.50;0.47;;;;;;;;;;4969077;28;20408;-90
2021/06/23 13:15:25;;;;;;;1.20;0.60;;;;;;;;;;4971292;28;20027;-89
2021/06/23 13:17:52;;;;;;;0.52;0.38;;;;;;;;;;4973283;28;20166;-90
2021/06/23 13:20:24;;;;;;;1.23;0.73;;;;;;;;;;4973020;28;20046;-90
2021/06/23 13:22:51;;;;;;;1.08;0.55;;;;;;;;;;4976366;28;20047;-90
2021/06/23 13:25:17;;;;;;;0.73;0.50;;;;;;;;;;4961932;28;20086;-88
2021/06/23 13:27:43;;;;;;;1.42;0.70;;;;;;;;;;4961304;28;20042;-89
2021/06/23 13:30:09;;;;;;;0.70;0.50;;;;;;;;;;4973270;28;20023;-89
2021/06/23 13:32:35;;;;;;;2.28;0.77;;;;;;;;;;4972839;28;20098;-87
2021/06/23 13:35:02;;;;;;;0.73;0.52;;;;;;;;;;4937138;29;20035;-91
2021/06/23 13:37:28;;;;;;;2.67;1.88;;;;;;;;;;4952039;28;20042;-91
2021/06/23 13:39:54;;;;;;;1.30;0.98;;;;;;;;;;4973110;28;20436;-89
2021/06/23 13:42:20;;;;;;;1.67;0.73;;;;;;;;;;4972201;28;20039;-91
2021/06/23 13:44:46;;;;;;;1.25;0.47;;;;;;;;;;4971127;28;20031;-88
2021/06/23 13:47:15;;;;;;;0.65;0.50;;;;;;;;;;4973333;28;20039;-92
2021/06/23 13:49:48;;;;;;;1.52;0.65;;;;;;;;;;4973306;28;20035;-94
2021/06/23 13:52:15;;;;;;;2.25;0.50;;;;;;;;;;4931936;29;20039;-90
2021/06/23 13:54:41;;;;;;;0.47;0.40;;;;;;;;;;4979595;28;20027;-93
2021/06/23 13:57:11;;;;;;;0.77;0.43;;;;;;;;;;4980438;28;20392;-92
2021/06/23 13:59:37;;;;;;;0.30;0.30;;;;;;;;;;4972573;28;20031;-92
2021/06/23 14:02:08;;;;;;;1.35;0.30;;;;;;;;;;4955498;28;20496;-95
2021/06/23 14:04:37;;;;;;;1.45;0.50;;;;;;;;;;4944832;28;20047;-94
2021/06/23 14:07:03;;;;;;;1.20;0.40;;;;;;;;;;4971112;28;20082;-93
2021/06/23 14:09:29;;;;;;;1.85;0.50;;;;;;;;;;4969179;28;20075;-92
2021/06/23 14:11:55;;;;;;;0.52;0.38;;;;;;;;;;4962478;28;20464;-94
2021/06/23 14:14:21;;;;;;;0.50;0.30;;;;;;;;;;4975965;28;20035;-92
2021/06/23 14:16:47;;;;;;;0.80;0.40;;;;;;;;;;4977127;28;20041;-92
2021/06/23 14:19:19;;;;;;;0.60;0.43;;;;;;;;;;4945450;29;20431;-94
2021/06/23 14:21:45;;;;;;;0.77;0.60;;;;;;;;;;4947605;29;20043;-88
2021/06/23 14:24:11;;;;;;;3.63;0.45;;;;;;;;;;4962535;28;20022;-90
2021/06/23 14:26:39;;;;;;;0.50;0.50;;;;;;;;;;4978210;28;20542;-89
2021/06/23 14:29:05;;;;;;;1.55;0.30;;;;;;;;;;4966936;28;20520;-90
2021/06/23 14:31:31;;;;;;;0.85;0.47;;;;;;;;;;4968100;28;20062;-91
2021/06/23 14:33:57;;;;;;;3.70;0.40;;;;;;;;;;4965973;28;20054;-92
2021/06/23 14:36:24;;;;;;;5.93;0.95;;;;;;;;;;4975477;28;20687;-93
2021/06/23 14:38:54;;;;;;;0.30;0.30;;;;;;;;;;4979038;28;20034;-93
2021/06/23 14:41:20;;;;;;;0.43;0.30;;;;;;;;;;4975291;28;20069;-91
2021/06/23 14:43:46;;;;;;;0.30;0.20;;;;;;;;;;4970983;28;20109;-94